sensor_id;sensor_type;location;lat;lon;timestamp;pressure;altitude;pressure_sealevel;temperature;humidity
56042;BME280;48756;41.374;2.066;2022-10-13T00:01:11;101637.59;;;19.20;93.07
56042;BME280;48756;41.374;2.066;2022-10-13T00:03:39;101636.81;;;19.17;92.82
56042;BME280;48756;41.374;2.066;2022-10-13T00:06:06;101642.97;;;19.17;93.31
56042;BME280;48756;41.374;2.066;2022-10-13T00:08:32;101636.22;;;19.09;94.63
56042;BME280;48756;41.374;2.066;2022-10-13T00:10:58;101638.00;;;19.08;92.36
56042;BME280;48756;41.374;2.066;2022-10-13T00:13:24;101631.84;;;19.08;93.42
56042;BME280;48756;41.374;2.066;2022-10-13T00:15:50;101638.94;;;19.06;93.04
56042;BME280;48756;41.374;2.066;2022-10-13T00:18:16;101634.69;;;19.02;93.21
56042;BME280;48756;41.374;2.066;2022-10-13T00:20:42;101631.53;;;18.89;93.80
56042;BME280;48756;41.374;2.066;2022-10-13T00:23:08;101644.38;;;18.70;94.61
56042;BME280;48756;41.374;2.066;2022-10-13T00:25:34;101644.78;;;18.55;94.81
56042;BME280;48756;41.374;2.066;2022-10-13T00:27:59;101638.22;;;18.39;96.73
56042;BME280;48756;41.374;2.066;2022-10-13T00:30:25;101631.84;;;18.46;96.35
56042;BME280;48756;41.374;2.066;2022-10-13T00:32:50;101646.34;;;18.29;97.29
56042;BME280;48756;41.374;2.066;2022-10-13T00:35:15;101647.34;;;18.25;96.87
56042;BME280;48756;41.374;2.066;2022-10-13T00:37:41;101649.81;;;18.31;97.50
56042;BME280;48756;41.374;2.066;2022-10-13T00:40:06;101635.66;;;18.35;96.37
56042;BME280;48756;41.374;2.066;2022-10-13T00:42:32;101649.16;;;18.23;97.51
56042;BME280;48756;41.374;2.066;2022-10-13T00:47:34;101646.91;;;18.08;98.23
56042;BME280;48756;41.374;2.066;2022-10-13T00:50:00;101643.38;;;18.09;98.68
56042;BME280;48756;41.374;2.066;2022-10-13T00:52:26;101639.00;;;18.08;98.03
56042;BME280;48756;41.374;2.066;2022-10-13T00:54:56;101651.16;;;18.15;98.00
56042;BME280;48756;41.374;2.066;2022-10-13T00:57:21;101649.38;;;18.16;97.14
56042;BME280;48756;41.374;2.066;2022-10-13T00:59:47;101638.19;;;18.06;97.96
56042;BME280;48756;41.374;2.066;2022-10-13T01:02:19;101646.81;;;18.13;97.11
56042;BME280;48756;41.374;2.066;2022-10-13T01:04:45;101652.06;;;18.14;96.99
56042;BME280;48756;41.374;2.066;2022-10-13T01:07:12;101650.00;;;18.25;96.35
56042;BME280;48756;41.374;2.066;2022-10-13T01:09:38;101660.34;;;18.33;96.22
56042;BME280;48756;41.374;2.066;2022-10-13T01:25:10;101653.13;;;18.72;94.13
56042;BME280;48756;41.374;2.066;2022-10-13T01:30:34;101661.72;;;18.80;92.78
56042;BME280;48756;41.374;2.066;2022-10-13T01:40:47;101652.06;;;18.78;92.63
56042;BME280;48756;41.374;2.066;2022-10-13T01:43:16;101652.22;;;18.73;92.84
56042;BME280;48756;41.374;2.066;2022-10-13T01:48:13;101643.56;;;18.68;93.34
56042;BME280;48756;41.374;2.066;2022-10-13T01:50:39;101648.94;;;18.65;92.94
56042;BME280;48756;41.374;2.066;2022-10-13T01:53:04;101645.25;;;18.71;93.15
56042;BME280;48756;41.374;2.066;2022-10-13T01:55:31;101635.75;;;18.65;92.99
56042;BME280;48756;41.374;2.066;2022-10-13T01:57:56;101634.97;;;18.60;93.57
56042;BME280;48756;41.374;2.066;2022-10-13T02:00:22;101637.75;;;18.54;93.67
56042;BME280;48756;41.374;2.066;2022-10-13T02:05:44;101634.56;;;18.43;94.62
56042;BME280;48756;41.374;2.066;2022-10-13T02:13:10;101630.03;;;18.48;93.29
56042;BME280;48756;41.374;2.066;2022-10-13T02:15:42;101624.03;;;18.43;93.38
56042;BME280;48756;41.374;2.066;2022-10-13T02:18:11;101628.06;;;18.23;95.20
56042;BME280;48756;41.374;2.066;2022-10-13T02:20:38;101634.91;;;17.98;95.73
56042;BME280;48756;41.374;2.066;2022-10-13T02:23:06;101638.72;;;17.85;97.64
56042;BME280;48756;41.374;2.066;2022-10-13T02:25:33;101639.59;;;17.85;98.00
56042;BME280;48756;41.374;2.066;2022-10-13T02:27:59;101638.78;;;17.83;98.97
56042;BME280;48756;41.374;2.066;2022-10-13T02:30:27;101641.94;;;17.97;97.81
56042;BME280;48756;41.374;2.066;2022-10-13T02:32:53;101630.75;;;17.88;98.09
56042;BME280;48756;41.374;2.066;2022-10-13T02:35:18;101640.91;;;18.03;97.57
56042;BME280;48756;41.374;2.066;2022-10-13T02:37:44;101637.00;;;18.18;96.74
56042;BME280;48756;41.374;2.066;2022-10-13T02:40:10;101629.56;;;18.33;95.99
56042;BME280;48756;41.374;2.066;2022-10-13T02:42:36;101629.03;;;18.52;94.84
56042;BME280;48756;41.374;2.066;2022-10-13T02:45:01;101632.56;;;18.51;94.73
56042;BME280;48756;41.374;2.066;2022-10-13T02:47:26;101631.53;;;18.58;93.77
56042;BME280;48756;41.374;2.066;2022-10-13T02:49:52;101627.72;;;18.68;93.58
56042;BME280;48756;41.374;2.066;2022-10-13T02:52:17;101633.97;;;18.65;92.95
56042;BME280;48756;41.374;2.066;2022-10-13T02:54:42;101621.53;;;18.69;93.11
56042;BME280;48756;41.374;2.066;2022-10-13T02:57:08;101620.66;;;18.69;94.18
56042;BME280;48756;41.374;2.066;2022-10-13T02:59:33;101616.03;;;18.77;94.51
56042;BME280;48756;41.374;2.066;2022-10-13T03:01:58;101619.22;;;18.88;93.33
56042;BME280;48756;41.374;2.066;2022-10-13T03:04:24;101617.97;;;19.00;92.68
56042;BME280;48756;41.374;2.066;2022-10-13T03:06:55;101619.34;;;19.13;92.09
56042;BME280;48756;41.374;2.066;2022-10-13T03:09:20;101602.47;;;19.17;90.68
56042;BME280;48756;41.374;2.066;2022-10-13T03:11:46;101608.63;;;19.17;90.89
56042;BME280;48756;41.374;2.066;2022-10-13T03:14:11;101603.34;;;19.17;91.27
56042;BME280;48756;41.374;2.066;2022-10-13T03:16:36;101605.13;;;19.17;91.01
56042;BME280;48756;41.374;2.066;2022-10-13T03:19:02;101598.22;;;19.13;91.09
56042;BME280;48756;41.374;2.066;2022-10-13T03:21:27;101602.94;;;19.03;90.16
56042;BME280;48756;41.374;2.066;2022-10-13T03:23:52;101599.38;;;19.04;89.84
56042;BME280;48756;41.374;2.066;2022-10-13T03:26:18;101592.13;;;19.11;89.89
56042;BME280;48756;41.374;2.066;2022-10-13T03:28:46;101603.59;;;19.10;89.74
56042;BME280;48756;41.374;2.066;2022-10-13T03:31:12;101602.06;;;19.03;90.07
56042;BME280;48756;41.374;2.066;2022-10-13T03:33:38;101593.28;;;19.01;90.00
56042;BME280;48756;41.374;2.066;2022-10-13T03:36:04;101595.31;;;18.92;90.78
56042;BME280;48756;41.374;2.066;2022-10-13T03:38:30;101599.31;;;18.76;90.76
56042;BME280;48756;41.374;2.066;2022-10-13T03:40:56;101599.22;;;18.81;90.61
56042;BME280;48756;41.374;2.066;2022-10-13T03:43:21;101604.16;;;18.91;89.73
56042;BME280;48756;41.374;2.066;2022-10-13T03:45:54;101599.06;;;18.85;89.95
56042;BME280;48756;41.374;2.066;2022-10-13T03:48:20;101601.75;;;18.84;90.38
56042;BME280;48756;41.374;2.066;2022-10-13T03:50:45;101598.28;;;18.82;90.41
56042;BME280;48756;41.374;2.066;2022-10-13T03:53:13;101607.28;;;18.75;90.11
56042;BME280;48756;41.374;2.066;2022-10-13T03:55:39;101605.66;;;18.71;90.68
56042;BME280;48756;41.374;2.066;2022-10-13T03:58:04;101599.25;;;18.78;89.42
56042;BME280;48756;41.374;2.066;2022-10-13T04:00:30;101601.28;;;18.70;89.18
56042;BME280;48756;41.374;2.066;2022-10-13T04:02:55;101602.88;;;18.75;89.33
56042;BME280;48756;41.374;2.066;2022-10-13T04:05:20;101598.59;;;18.71;90.42
56042;BME280;48756;41.374;2.066;2022-10-13T04:07:46;101597.88;;;18.66;90.47
56042;BME280;48756;41.374;2.066;2022-10-13T04:10:11;101602.38;;;18.62;89.54
56042;BME280;48756;41.374;2.066;2022-10-13T04:12:36;101596.91;;;18.69;89.52
56042;BME280;48756;41.374;2.066;2022-10-13T04:15:02;101598.63;;;18.70;90.17
56042;BME280;48756;41.374;2.066;2022-10-13T04:17:28;101594.38;;;18.65;90.03
56042;BME280;48756;41.374;2.066;2022-10-13T04:19:53;101601.03;;;18.77;90.17
56042;BME280;48756;41.374;2.066;2022-10-13T04:22:19;101599.22;;;18.81;89.66
56042;BME280;48756;41.374;2.066;2022-10-13T04:24:44;101604.44;;;18.82;89.28
56042;BME280;48756;41.374;2.066;2022-10-13T04:27:10;101599.66;;;18.65;89.48
56042;BME280;48756;41.374;2.066;2022-10-13T04:29:35;101607.44;;;18.70;88.79
56042;BME280;48756;41.374;2.066;2022-10-13T04:32:00;101603.31;;;18.60;89.32
56042;BME280;48756;41.374;2.066;2022-10-13T04:34:26;101604.16;;;18.60;89.55
56042;BME280;48756;41.374;2.066;2022-10-13T04:36:51;101607.56;;;18.65;89.91
56042;BME280;48756;41.374;2.066;2022-10-13T04:39:16;101602.97;;;18.72;89.08
56042;BME280;48756;41.374;2.066;2022-10-13T04:41:42;101610.75;;;18.77;88.00
56042;BME280;48756;41.374;2.066;2022-10-13T04:44:08;101610.88;;;18.72;88.41
56042;BME280;48756;41.374;2.066;2022-10-13T04:46:36;101619.50;;;18.79;88.33
56042;BME280;48756;41.374;2.066;2022-10-13T04:49:01;101618.84;;;18.71;88.52
56042;BME280;48756;41.374;2.066;2022-10-13T04:51:26;101620.66;;;18.69;88.41
56042;BME280;48756;41.374;2.066;2022-10-13T04:53:55;101625.94;;;18.69;88.81
56042;BME280;48756;41.374;2.066;2022-10-13T04:56:21;101630.31;;;18.70;88.71
56042;BME280;48756;41.374;2.066;2022-10-13T04:58:46;101628.69;;;18.65;89.15
56042;BME280;48756;41.374;2.066;2022-10-13T05:01:13;101625.75;;;18.75;88.10
56042;BME280;48756;41.374;2.066;2022-10-13T05:03:39;101629.47;;;18.69;88.93
56042;BME280;48756;41.374;2.066;2022-10-13T05:06:05;101633.06;;;18.66;88.01
56042;BME280;48756;41.374;2.066;2022-10-13T05:08:30;101626.59;;;18.77;88.34
56042;BME280;48756;41.374;2.066;2022-10-13T05:11:01;101633.59;;;18.78;87.77
56042;BME280;48756;41.374;2.066;2022-10-13T05:13:27;101637.00;;;18.83;88.56
56042;BME280;48756;41.374;2.066;2022-10-13T05:15:52;101634.50;;;18.77;88.07
56042;BME280;48756;41.374;2.066;2022-10-13T05:18:18;101632.72;;;18.79;88.59
56042;BME280;48756;41.374;2.066;2022-10-13T05:20:43;101630.50;;;18.93;87.54
56042;BME280;48756;41.374;2.066;2022-10-13T05:23:08;101625.94;;;18.98;87.08
56042;BME280;48756;41.374;2.066;2022-10-13T05:25:34;101621.72;;;18.92;88.11
56042;BME280;48756;41.374;2.066;2022-10-13T05:28:00;101618.50;;;18.83;88.73
56042;BME280;48756;41.374;2.066;2022-10-13T05:30:25;101605.88;;;18.92;87.72
56042;BME280;48756;41.374;2.066;2022-10-13T05:32:50;101609.44;;;18.91;88.17
56042;BME280;48756;41.374;2.066;2022-10-13T05:35:24;101611.22;;;18.91;88.13
56042;BME280;48756;41.374;2.066;2022-10-13T05:37:49;101605.41;;;18.78;89.13
56042;BME280;48756;41.374;2.066;2022-10-13T05:40:14;101611.16;;;18.92;88.28
56042;BME280;48756;41.374;2.066;2022-10-13T05:42:40;101612.31;;;18.84;88.91
56042;BME280;48756;41.374;2.066;2022-10-13T05:45:06;101609.09;;;18.73;89.68
56042;BME280;48756;41.374;2.066;2022-10-13T05:47:33;101612.47;;;18.79;89.33
56042;BME280;48756;41.374;2.066;2022-10-13T05:49:58;101602.81;;;18.77;89.62
56042;BME280;48756;41.374;2.066;2022-10-13T05:52:23;101598.72;;;18.66;90.39
56042;BME280;48756;41.374;2.066;2022-10-13T05:54:53;101597.22;;;18.58;92.01
56042;BME280;48756;41.374;2.066;2022-10-13T05:57:27;101591.13;;;18.54;91.60
56042;BME280;48756;41.374;2.066;2022-10-13T05:59:55;101596.78;;;18.73;90.80
56042;BME280;48756;41.374;2.066;2022-10-13T06:02:23;101594.84;;;18.78;91.07
56042;BME280;48756;41.374;2.066;2022-10-13T06:04:50;101596.31;;;18.88;89.86
56042;BME280;48756;41.374;2.066;2022-10-13T06:07:17;101585.69;;;18.60;91.19
56042;BME280;48756;41.374;2.066;2022-10-13T06:09:43;101594.00;;;18.47;92.38
56042;BME280;48756;41.374;2.066;2022-10-13T06:12:09;101600.19;;;18.46;92.19
56042;BME280;48756;41.374;2.066;2022-10-13T06:14:34;101594.25;;;18.38;92.15
56042;BME280;48756;41.374;2.066;2022-10-13T06:17:00;101605.59;;;18.41;92.29
56042;BME280;48756;41.374;2.066;2022-10-13T06:19:26;101602.88;;;18.44;92.51
56042;BME280;48756;41.374;2.066;2022-10-13T06:21:51;101603.81;;;18.42;92.16
56042;BME280;48756;41.374;2.066;2022-10-13T06:24:16;101609.09;;;18.42;92.00
56042;BME280;48756;41.374;2.066;2022-10-13T06:26:42;101611.41;;;18.52;91.64
56042;BME280;48756;41.374;2.066;2022-10-13T06:29:07;101608.78;;;18.52;92.94
56042;BME280;48756;41.374;2.066;2022-10-13T06:31:32;101606.75;;;18.62;91.06
56042;BME280;48756;41.374;2.066;2022-10-13T06:33:58;101610.25;;;18.64;90.87
56042;BME280;48756;41.374;2.066;2022-10-13T06:36:24;101618.56;;;18.81;90.17
56042;BME280;48756;41.374;2.066;2022-10-13T06:38:49;101620.84;;;18.92;89.60
56042;BME280;48756;41.374;2.066;2022-10-13T06:41:14;101624.75;;;18.80;89.58
56042;BME280;48756;41.374;2.066;2022-10-13T06:43:40;101629.13;;;18.81;89.79
56042;BME280;48756;41.374;2.066;2022-10-13T06:46:06;101625.66;;;18.78;90.28
56042;BME280;48756;41.374;2.066;2022-10-13T06:48:31;101624.69;;;18.82;88.97
56042;BME280;48756;41.374;2.066;2022-10-13T06:51:00;101628.16;;;18.84;90.16
56042;BME280;48756;41.374;2.066;2022-10-13T06:53:26;101631.44;;;18.92;89.78
56042;BME280;48756;41.374;2.066;2022-10-13T06:55:54;101629.56;;;18.95;89.01
56042;BME280;48756;41.374;2.066;2022-10-13T06:58:19;101633.72;;;19.04;87.99
56042;BME280;48756;41.374;2.066;2022-10-13T07:00:45;101636.59;;;18.95;89.06
56042;BME280;48756;41.374;2.066;2022-10-13T07:03:10;101638.69;;;18.85;89.01
56042;BME280;48756;41.374;2.066;2022-10-13T07:05:36;101634.31;;;18.84;89.76
56042;BME280;48756;41.374;2.066;2022-10-13T07:08:01;101639.16;;;18.98;89.22
56042;BME280;48756;41.374;2.066;2022-10-13T07:10:26;101650.31;;;18.78;89.65
56042;BME280;48756;41.374;2.066;2022-10-13T07:12:52;101647.47;;;18.86;89.09
56042;BME280;48756;41.374;2.066;2022-10-13T07:15:17;101654.97;;;19.00;88.69
56042;BME280;48756;41.374;2.066;2022-10-13T07:17:42;101655.41;;;19.14;88.22
56042;BME280;48756;41.374;2.066;2022-10-13T07:20:08;101656.84;;;19.25;88.13
56042;BME280;48756;41.374;2.066;2022-10-13T07:22:33;101666.75;;;19.47;87.08
56042;BME280;48756;41.374;2.066;2022-10-13T07:24:59;101664.66;;;19.58;87.16
56042;BME280;48756;41.374;2.066;2022-10-13T07:27:24;101668.41;;;19.49;86.48
56042;BME280;48756;41.374;2.066;2022-10-13T07:29:50;101669.06;;;19.57;86.60
56042;BME280;48756;41.374;2.066;2022-10-13T07:32:15;101666.28;;;19.62;86.27
56042;BME280;48756;41.374;2.066;2022-10-13T07:34:43;101674.91;;;19.67;86.81
56042;BME280;48756;41.374;2.066;2022-10-13T07:37:09;101672.16;;;19.72;85.37
56042;BME280;48756;41.374;2.066;2022-10-13T07:39:34;101669.88;;;19.86;83.96
56042;BME280;48756;41.374;2.066;2022-10-13T07:42:00;101671.88;;;19.79;84.58
56042;BME280;48756;41.374;2.066;2022-10-13T07:44:25;101673.28;;;19.89;84.93
56042;BME280;48756;41.374;2.066;2022-10-13T07:46:50;101678.13;;;20.03;83.93
56042;BME280;48756;41.374;2.066;2022-10-13T07:49:16;101671.00;;;20.05;82.96
56042;BME280;48756;41.374;2.066;2022-10-13T07:51:41;101672.56;;;20.11;83.49
56042;BME280;48756;41.374;2.066;2022-10-13T07:54:08;101675.09;;;20.15;83.22
56042;BME280;48756;41.374;2.066;2022-10-13T07:56:33;101671.91;;;20.31;82.36
56042;BME280;48756;41.374;2.066;2022-10-13T07:59:00;101671.69;;;20.37;81.25
56042;BME280;48756;41.374;2.066;2022-10-13T08:01:26;101678.19;;;20.53;81.73
56042;BME280;48756;41.374;2.066;2022-10-13T08:03:53;101679.38;;;20.69;80.04
56042;BME280;48756;41.374;2.066;2022-10-13T08:06:19;101684.44;;;20.75;79.94
56042;BME280;48756;41.374;2.066;2022-10-13T08:08:44;101679.38;;;20.93;78.34
56042;BME280;48756;41.374;2.066;2022-10-13T08:11:11;101695.41;;;20.90;78.38
56042;BME280;48756;41.374;2.066;2022-10-13T08:13:46;101694.94;;;21.02;77.83
56042;BME280;48756;41.374;2.066;2022-10-13T08:16:12;101686.16;;;21.23;77.41
56042;BME280;48756;41.374;2.066;2022-10-13T08:18:38;101682.34;;;21.32;76.92
56042;BME280;48756;41.374;2.066;2022-10-13T08:21:03;101681.69;;;21.25;76.44
56042;BME280;48756;41.374;2.066;2022-10-13T08:23:28;101678.91;;;21.52;75.65
56042;BME280;48756;41.374;2.066;2022-10-13T08:25:54;101681.50;;;21.75;74.22
56042;BME280;48756;41.374;2.066;2022-10-13T08:28:24;101676.25;;;21.94;73.10
56042;BME280;48756;41.374;2.066;2022-10-13T08:30:55;101677.69;;;22.02;72.26
56042;BME280;48756;41.374;2.066;2022-10-13T08:33:24;101675.09;;;22.23;71.11
56042;BME280;48756;41.374;2.066;2022-10-13T08:35:50;101669.63;;;22.26;70.90
56042;BME280;48756;41.374;2.066;2022-10-13T08:38:16;101657.81;;;22.33;69.96
56042;BME280;48756;41.374;2.066;2022-10-13T08:40:45;101646.75;;;22.62;70.19
56042;BME280;48756;41.374;2.066;2022-10-13T08:43:11;101650.19;;;22.46;70.24
56042;BME280;48756;41.374;2.066;2022-10-13T08:45:38;101649.91;;;22.52;69.03
56042;BME280;48756;41.374;2.066;2022-10-13T08:48:04;101650.25;;;22.83;68.44
56042;BME280;48756;41.374;2.066;2022-10-13T08:50:32;101653.25;;;22.76;68.78
56042;BME280;48756;41.374;2.066;2022-10-13T08:55:27;101644.66;;;22.50;68.88
56042;BME280;48756;41.374;2.066;2022-10-13T08:57:53;101646.09;;;22.57;68.31
56042;BME280;48756;41.374;2.066;2022-10-13T09:00:19;101649.72;;;22.75;67.53
56042;BME280;48756;41.374;2.066;2022-10-13T09:02:44;101652.22;;;23.17;66.43
56042;BME280;48756;41.374;2.066;2022-10-13T09:05:14;101660.03;;;23.39;66.07
56042;BME280;48756;41.374;2.066;2022-10-13T09:07:42;101662.22;;;23.12;66.18
56042;BME280;48756;41.374;2.066;2022-10-13T09:10:09;101659.50;;;23.50;65.33
56042;BME280;48756;41.374;2.066;2022-10-13T09:12:34;101656.69;;;23.72;63.51
56042;BME280;48756;41.374;2.066;2022-10-13T09:17:26;101648.84;;;22.95;65.15
56042;BME280;48756;41.374;2.066;2022-10-13T09:25:07;101644.41;;;23.14;65.05
56042;BME280;48756;41.374;2.066;2022-10-13T09:27:49;101644.16;;;23.19;64.18
56042;BME280;48756;41.374;2.066;2022-10-13T09:30:29;101640.25;;;23.09;65.20
56042;BME280;48756;41.374;2.066;2022-10-13T09:33:18;101639.88;;;22.98;65.45
56042;BME280;48756;41.374;2.066;2022-10-13T09:38:09;101628.13;;;22.83;66.03
56042;BME280;48756;41.374;2.066;2022-10-13T09:40:35;101627.19;;;22.65;66.17
56042;BME280;48756;41.374;2.066;2022-10-13T09:43:02;101631.97;;;22.57;67.03
56042;BME280;48756;41.374;2.066;2022-10-13T09:45:30;101645.81;;;22.45;67.53
56042;BME280;48756;41.374;2.066;2022-10-13T09:48:00;101640.66;;;22.60;67.68
56042;BME280;48756;41.374;2.066;2022-10-13T09:50:28;101640.59;;;22.81;66.51
56042;BME280;48756;41.374;2.066;2022-10-13T09:53:07;101634.84;;;23.10;66.07
56042;BME280;48756;41.374;2.066;2022-10-13T09:55:34;101634.84;;;23.65;63.71
56042;BME280;48756;41.374;2.066;2022-10-13T09:58:13;101629.59;;;23.98;62.65
56042;BME280;48756;41.374;2.066;2022-10-13T10:00:40;101626.94;;;23.64;63.52
56042;BME280;48756;41.374;2.066;2022-10-13T10:03:13;101624.53;;;23.76;61.96
56042;BME280;48756;41.374;2.066;2022-10-13T10:05:59;101627.50;;;24.22;60.11
56042;BME280;48756;41.374;2.066;2022-10-13T10:10:51;101631.50;;;23.79;60.68
56042;BME280;48756;41.374;2.066;2022-10-13T10:13:17;101621.88;;;23.76;60.83
56042;BME280;48756;41.374;2.066;2022-10-13T10:15:49;101620.16;;;24.10;60.06
56042;BME280;48756;41.374;2.066;2022-10-13T10:18:17;101617.69;;;24.40;59.88
56042;BME280;48756;41.374;2.066;2022-10-13T10:25:50;101614.03;;;24.25;60.02
56042;BME280;48756;41.374;2.066;2022-10-13T10:38:37;101602.66;;;24.88;59.67
56042;BME280;48756;41.374;2.066;2022-10-13T10:46:23;101597.88;;;25.10;58.13
56042;BME280;48756;41.374;2.066;2022-10-13T10:48:54;101603.72;;;25.01;58.94
56042;BME280;48756;41.374;2.066;2022-10-13T10:51:22;101606.25;;;25.50;57.39
56042;BME280;48756;41.374;2.066;2022-10-13T10:56:36;101591.31;;;25.31;57.19
56042;BME280;48756;41.374;2.066;2022-10-13T11:06:43;101576.47;;;26.46;54.72
56042;BME280;48756;41.374;2.066;2022-10-13T11:09:08;101582.69;;;26.02;55.13
56042;BME280;48756;41.374;2.066;2022-10-13T11:11:36;101591.78;;;26.14;54.95
56042;BME280;48756;41.374;2.066;2022-10-13T11:16:40;101577.31;;;26.32;52.91
56042;BME280;48756;41.374;2.066;2022-10-13T11:37:51;101554.53;;;26.96;52.81
56042;BME280;48756;41.374;2.066;2022-10-13T11:45:21;101541.88;;;27.12;53.06
56042;BME280;48756;41.374;2.066;2022-10-13T11:48:13;101536.69;;;26.82;54.83
56042;BME280;48756;41.374;2.066;2022-10-13T11:53:26;101517.44;;;26.77;53.16
56042;BME280;48756;41.374;2.066;2022-10-13T11:55:56;101512.72;;;27.35;51.21
56042;BME280;48756;41.374;2.066;2022-10-13T11:58:26;101504.31;;;27.14;51.63
56042;BME280;48756;41.374;2.066;2022-10-13T12:01:11;101496.56;;;27.24;52.68
56042;BME280;48756;41.374;2.066;2022-10-13T12:03:43;101498.47;;;27.22;52.70
56042;BME280;48756;41.374;2.066;2022-10-13T12:06:26;101488.44;;;27.38;49.45
56042;BME280;48756;41.374;2.066;2022-10-13T12:08:58;101483.72;;;27.16;52.00
56042;BME280;48756;41.374;2.066;2022-10-13T12:11:25;101476.63;;;27.67;49.94
56042;BME280;48756;41.374;2.066;2022-10-13T12:13:52;101470.34;;;27.16;51.15
56042;BME280;48756;41.374;2.066;2022-10-13T12:16:17;101465.38;;;26.28;51.84
56042;BME280;48756;41.374;2.066;2022-10-13T12:18:43;101449.13;;;26.59;52.29
56042;BME280;48756;41.374;2.066;2022-10-13T12:21:09;101445.34;;;27.03;51.55
56042;BME280;48756;41.374;2.066;2022-10-13T12:23:35;101444.38;;;26.77;51.76
56042;BME280;48756;41.374;2.066;2022-10-13T12:26:01;101442.09;;;26.98;51.96
56042;BME280;48756;41.374;2.066;2022-10-13T12:28:45;101443.25;;;27.21;51.33
56042;BME280;48756;41.374;2.066;2022-10-13T12:31:22;101440.09;;;26.74;51.66
56042;BME280;48756;41.374;2.066;2022-10-13T12:33:52;101435.66;;;26.05;52.70
56042;BME280;48756;41.374;2.066;2022-10-13T12:36:19;101424.97;;;25.91;52.69
56042;BME280;48756;41.374;2.066;2022-10-13T12:38:49;101414.41;;;26.45;53.04
56042;BME280;48756;41.374;2.066;2022-10-13T12:41:16;101417.41;;;26.26;54.16
56042;BME280;48756;41.374;2.066;2022-10-13T12:43:42;101407.19;;;25.61;54.95
56042;BME280;48756;41.374;2.066;2022-10-13T12:46:08;101407.34;;;25.30;56.45
56042;BME280;48756;41.374;2.066;2022-10-13T12:48:34;101401.50;;;24.93;57.27
56042;BME280;48756;41.374;2.066;2022-10-13T12:51:34;101398.28;;;25.32;55.85
56042;BME280;48756;41.374;2.066;2022-10-13T12:53:52;101379.97;;;25.12;56.70
56042;BME280;48756;41.374;2.066;2022-10-13T12:56:27;101386.91;;;25.59;54.51
56042;BME280;48756;41.374;2.066;2022-10-13T12:58:54;101382.69;;;25.41;55.19
56042;BME280;48756;41.374;2.066;2022-10-13T13:01:25;101383.28;;;25.01;56.64
56042;BME280;48756;41.374;2.066;2022-10-13T13:03:55;101384.97;;;25.47;57.44
56042;BME280;48756;41.374;2.066;2022-10-13T13:06:22;101380.13;;;25.39;57.70
56042;BME280;48756;41.374;2.066;2022-10-13T13:11:37;101380.69;;;25.00;57.88
56042;BME280;48756;41.374;2.066;2022-10-13T13:17:03;101374.38;;;25.17;58.45
56042;BME280;48756;41.374;2.066;2022-10-13T13:19:32;101371.75;;;25.74;58.13
56042;BME280;48756;41.374;2.066;2022-10-13T13:21:58;101362.31;;;26.23;57.38
56042;BME280;48756;41.374;2.066;2022-10-13T13:24:23;101375.53;;;25.98;57.38
56042;BME280;48756;41.374;2.066;2022-10-13T13:26:49;101374.13;;;25.64;57.10
56042;BME280;48756;41.374;2.066;2022-10-13T13:29:14;101374.03;;;25.80;57.31
56042;BME280;48756;41.374;2.066;2022-10-13T13:31:39;101369.19;;;26.28;55.98
56042;BME280;48756;41.374;2.066;2022-10-13T13:34:07;101364.19;;;26.50;56.04
56042;BME280;48756;41.374;2.066;2022-10-13T13:36:32;101363.38;;;26.62;56.06
56042;BME280;48756;41.374;2.066;2022-10-13T13:38:58;101357.19;;;27.01;53.64
56042;BME280;48756;41.374;2.066;2022-10-13T13:41:23;101351.50;;;27.06;53.06
56042;BME280;48756;41.374;2.066;2022-10-13T13:43:51;101346.38;;;27.28;51.94
56042;BME280;48756;41.374;2.066;2022-10-13T13:46:20;101355.38;;;27.02;52.86
56042;BME280;48756;41.374;2.066;2022-10-13T13:48:47;101340.72;;;27.20;51.81
56042;BME280;48756;41.374;2.066;2022-10-13T13:51:12;101333.78;;;27.18;50.82
56042;BME280;48756;41.374;2.066;2022-10-13T13:53:38;101341.38;;;27.24;51.69
56042;BME280;48756;41.374;2.066;2022-10-13T13:56:04;101339.84;;;27.32;51.92
56042;BME280;48756;41.374;2.066;2022-10-13T13:58:29;101343.19;;;27.49;51.33
56042;BME280;48756;41.374;2.066;2022-10-13T14:00:55;101334.94;;;27.39;50.59
56042;BME280;48756;41.374;2.066;2022-10-13T14:03:20;101325.63;;;27.44;49.87
56042;BME280;48756;41.374;2.066;2022-10-13T14:05:45;101325.63;;;27.19;50.21
56042;BME280;48756;41.374;2.066;2022-10-13T14:08:11;101333.13;;;27.01;50.63
56042;BME280;48756;41.374;2.066;2022-10-13T14:10:37;101332.16;;;26.63;50.45
56042;BME280;48756;41.374;2.066;2022-10-13T14:13:03;101331.97;;;26.78;51.13
56042;BME280;48756;41.374;2.066;2022-10-13T14:15:28;101334.91;;;26.48;50.71
56042;BME280;48756;41.374;2.066;2022-10-13T14:17:54;101337.53;;;26.21;52.01
56042;BME280;48756;41.374;2.066;2022-10-13T14:20:19;101332.78;;;26.12;52.41
56042;BME280;48756;41.374;2.066;2022-10-13T14:22:45;101337.63;;;26.20;52.29
56042;BME280;48756;41.374;2.066;2022-10-13T14:25:11;101328.19;;;26.68;51.87
56042;BME280;48756;41.374;2.066;2022-10-13T14:27:36;101335.59;;;26.23;53.49
56042;BME280;48756;41.374;2.066;2022-10-13T14:30:05;101332.06;;;26.23;54.44
56042;BME280;48756;41.374;2.066;2022-10-13T14:32:31;101328.31;;;26.13;55.03
56042;BME280;48756;41.374;2.066;2022-10-13T14:34:56;101335.16;;;26.17;51.87
56042;BME280;48756;41.374;2.066;2022-10-13T14:37:21;101340.41;;;26.18;50.45
56042;BME280;48756;41.374;2.066;2022-10-13T14:39:47;101333.88;;;26.22;49.10
56042;BME280;48756;41.374;2.066;2022-10-13T14:42:12;101327.16;;;26.44;49.38
56042;BME280;48756;41.374;2.066;2022-10-13T14:44:37;101329.84;;;26.44;48.95
56042;BME280;48756;41.374;2.066;2022-10-13T14:47:03;101327.09;;;26.31;49.01